Time;durP1;ratioP1;P1;durP2;ratioP2;P2;SDS_P1;SDS_P2;PMS_P1;PMS_P2;Temp;Humidity;BMP_temperature;BMP_pressure;BME280_temperature;BME280_humidity;BME280_pressure;Samples;Min_cycle;Max_cycle;Signal;HPM_P1;HPM_P2
2020/12/08 00:02:25;;;;;;;1999.90;999.90;;;2.80;99.90;;;;;;4982063;28;20222;-82
2020/12/08 00:04:51;;;;;;;1999.90;999.90;;;2.80;99.90;;;;;;4982873;28;20210;-82
2020/12/08 00:07:16;;;;;;;1999.90;999.90;;;2.80;99.90;;;;;;4981897;28;20171;-82
2020/12/08 00:09:42;;;;;;;1999.90;999.90;;;2.80;99.90;;;;;;4965087;28;20175;-82
2020/12/08 00:12:08;;;;;;;1999.90;999.90;;;2.80;99.90;;;;;;4981913;28;20174;-82
2020/12/08 00:14:36;;;;;;;1999.90;999.90;;;2.80;99.90;;;;;;4981458;28;20168;-82
2020/12/08 00:17:03;;;;;;;1999.90;999.90;;;2.90;99.90;;;;;;4981486;28;20174;-82
2020/12/08 00:19:29;;;;;;;1999.90;999.90;;;2.90;99.90;;;;;;4980129;28;20175;-82
2020/12/08 00:21:54;;;;;;;1999.90;999.90;;;2.80;99.90;;;;;;4981969;28;20179;-82
2020/12/08 00:24:21;;;;;;;1999.90;999.90;;;2.80;99.90;;;;;;4981988;28;20207;-82
2020/12/08 00:26:47;;;;;;;1999.90;999.90;;;2.70;99.90;;;;;;4981761;28;20172;-82
2020/12/08 00:29:13;;;;;;;1999.90;999.90;;;2.60;99.90;;;;;;4981353;28;20225;-82
2020/12/08 00:31:38;;;;;;;1999.90;999.90;;;2.70;99.90;;;;;;4981624;28;20434;-82
2020/12/08 00:34:05;;;;;;;1999.90;999.90;;;2.70;99.90;;;;;;4981873;28;20207;-82
2020/12/08 00:36:31;;;;;;;1999.90;999.90;;;2.60;99.90;;;;;;4981144;28;20197;-82
2020/12/08 00:38:57;;;;;;;1999.90;999.90;;;2.60;99.90;;;;;;4963345;28;20254;-82
2020/12/08 00:41:23;;;;;;;1999.90;999.90;;;2.60;99.90;;;;;;4980620;28;20163;-81
2020/12/08 00:43:50;;;;;;;1999.90;999.90;;;2.50;99.90;;;;;;4963100;28;20250;-82
2020/12/08 00:46:17;;;;;;;1999.90;999.90;;;2.50;99.90;;;;;;4980801;28;20174;-82
2020/12/08 00:48:43;;;;;;;1999.90;999.90;;;2.60;99.90;;;;;;4980807;28;20200;-82
2020/12/08 00:51:09;;;;;;;1999.90;999.90;;;2.60;99.90;;;;;;4980597;28;20173;-82
2020/12/08 00:53:35;;;;;;;1999.90;999.90;;;2.60;99.90;;;;;;4981003;28;20167;-81
2020/12/08 00:56:07;;;;;;;1999.90;999.90;;;2.60;99.90;;;;;;4963383;28;20454;-81
2020/12/08 00:58:32;;;;;;;1999.90;999.90;;;2.70;99.90;;;;;;4963949;28;20418;-82
2020/12/08 01:00:58;;;;;;;1999.90;999.90;;;2.70;99.90;;;;;;4981020;28;20175;-82
2020/12/08 01:03:24;;;;;;;1999.90;999.90;;;2.80;99.90;;;;;;4980887;28;20170;-82
2020/12/08 01:05:49;;;;;;;1999.90;999.90;;;2.70;99.90;;;;;;4979467;28;20185;-82
2020/12/08 01:08:15;;;;;;;1999.90;999.90;;;2.70;99.90;;;;;;4980580;28;20202;-82
2020/12/08 01:10:41;;;;;;;1999.90;999.90;;;2.60;99.90;;;;;;4962925;28;20175;-82
2020/12/08 01:13:06;;;;;;;1999.90;999.90;;;2.60;99.90;;;;;;4980783;28;20168;-81
2020/12/08 01:15:32;;;;;;;1999.90;999.90;;;2.50;99.90;;;;;;4980147;28;20654;-81
2020/12/08 01:17:57;;;;;;;1999.90;999.90;;;2.50;99.90;;;;;;4963203;28;20539;-82
2020/12/08 01:20:23;;;;;;;1999.90;999.90;;;2.40;99.90;;;;;;4963768;28;20221;-82
2020/12/08 01:22:51;;;;;;;1999.90;999.90;;;2.40;99.90;;;;;;4980861;28;20179;-82
2020/12/08 01:25:17;;;;;;;1999.90;999.90;;;2.30;99.90;;;;;;4981027;28;20163;-82
2020/12/08 01:27:42;;;;;;;1999.90;999.90;;;2.30;99.90;;;;;;4980910;28;20203;-82
2020/12/08 01:30:11;;;;;;;1999.90;999.90;;;2.40;99.90;;;;;;4963059;28;20171;-82
2020/12/08 01:32:37;;;;;;;1999.90;999.90;;;2.30;99.90;;;;;;4980399;28;20163;-81
2020/12/08 01:35:03;;;;;;;1999.90;999.90;;;2.30;99.90;;;;;;4962725;28;20552;-81
2020/12/08 01:37:28;;;;;;;1999.90;999.90;;;2.30;99.90;;;;;;4980090;28;20296;-82
2020/12/08 01:39:54;;;;;;;1999.90;999.90;;;2.30;99.90;;;;;;4962318;28;20411;-82
2020/12/08 01:42:19;;;;;;;1999.90;999.90;;;2.40;99.90;;;;;;4980090;28;20167;-82
2020/12/08 01:44:47;;;;;;;1999.90;999.90;;;2.40;99.90;;;;;;4978342;28;20171;-82
2020/12/08 01:47:14;;;;;;;1999.90;999.90;;;2.40;99.90;;;;;;4979955;28;20181;-82
2020/12/08 01:49:40;;;;;;;1999.90;999.90;;;2.40;99.90;;;;;;4963083;28;20595;-82
2020/12/08 01:52:06;;;;;;;1999.90;999.90;;;2.40;99.90;;;;;;4978188;28;20168;-82
2020/12/08 01:54:32;;;;;;;1999.90;999.90;;;2.40;99.90;;;;;;4979762;28;20255;-82
2020/12/08 01:56:58;;;;;;;1999.90;999.90;;;2.40;99.90;;;;;;4962714;28;20411;-81
2020/12/08 01:59:24;;;;;;;1999.90;999.90;;;2.40;99.90;;;;;;4979939;28;20167;-82
2020/12/08 02:01:49;;;;;;;1999.90;999.90;;;2.50;99.90;;;;;;4981020;28;20261;-82
2020/12/08 02:04:15;;;;;;;1999.90;999.90;;;2.60;99.90;;;;;;4978547;28;20175;-81
2020/12/08 02:06:41;;;;;;;1999.90;999.90;;;2.60;99.90;;;;;;4980209;28;20171;-82
2020/12/08 02:09:07;;;;;;;1999.90;999.90;;;2.60;99.90;;;;;;4978463;28;20179;-82
2020/12/08 02:11:32;;;;;;;1999.90;999.90;;;2.70;99.90;;;;;;4978290;28;20182;-82
2020/12/08 02:13:58;;;;;;;1999.90;999.90;;;2.70;99.90;;;;;;4960803;28;20934;-82
2020/12/08 02:16:24;;;;;;;1999.90;999.90;;;2.80;99.90;;;;;;4978652;28;20246;-83
2020/12/08 02:18:54;;;;;;;1999.90;999.90;;;2.80;99.90;;;;;;4960864;28;20175;-82
2020/12/08 02:21:32;;;;;;;1999.90;999.90;;;2.80;99.90;;;;;;5027460;23;20218;-79
2020/12/08 02:23:58;;;;;;;1999.90;999.90;;;2.90;99.90;;;;;;4977862;28;20171;-79
2020/12/08 02:26:23;;;;;;;1999.90;999.90;;;2.90;99.90;;;;;;4977739;28;20194;-79
2020/12/08 02:28:50;;;;;;;1999.90;999.90;;;2.90;99.90;;;;;;4960765;28;20509;-79
2020/12/08 02:31:16;;;;;;;1999.90;999.90;;;2.90;99.90;;;;;;4977905;28;20174;-80
2020/12/08 02:33:41;;;;;;;1999.90;999.90;;;2.90;99.90;;;;;;4977622;28;20650;-79
2020/12/08 02:36:07;;;;;;;1999.90;999.90;;;3.00;99.90;;;;;;4976684;28;20187;-80
2020/12/08 02:38:33;;;;;;;1999.90;999.90;;;3.00;99.90;;;;;;4977093;28;20173;-79
2020/12/08 02:40:59;;;;;;;1999.90;999.90;;;3.00;99.90;;;;;;4977183;28;20242;-79
2020/12/08 02:43:25;;;;;;;1999.90;999.90;;;3.00;99.90;;;;;;4977597;28;20398;-79
2020/12/08 02:45:51;;;;;;;1999.90;999.90;;;3.00;99.90;;;;;;4977451;28;20902;-79
2020/12/08 02:48:17;;;;;;;1999.90;999.90;;;3.10;99.90;;;;;;4977052;28;20651;-79
2020/12/08 02:50:43;;;;;;;1999.90;999.90;;;3.10;99.90;;;;;;4977197;28;20421;-80
2020/12/08 02:53:09;;;;;;;1999.90;999.90;;;3.00;99.90;;;;;;4977985;28;20254;-79
2020/12/08 02:55:35;;;;;;;1999.90;999.90;;;3.00;99.90;;;;;;4977513;28;20223;-80
2020/12/08 02:58:01;;;;;;;1999.90;999.90;;;3.00;99.90;;;;;;4977331;28;20410;-79
2020/12/08 03:00:27;;;;;;;1999.90;999.90;;;3.00;99.90;;;;;;4977159;28;20775;-79
2020/12/08 03:02:53;;;;;;;1999.90;999.90;;;3.00;99.90;;;;;;4976641;28;20413;-80
2020/12/08 03:05:18;;;;;;;1999.90;999.90;;;3.10;99.90;;;;;;4976732;28;20167;-80
2020/12/08 03:07:44;;;;;;;1999.90;999.90;;;3.10;99.90;;;;;;4977868;28;20191;-80
2020/12/08 03:10:10;;;;;;;1999.90;999.90;;;3.10;99.90;;;;;;4977813;28;20227;-80
2020/12/08 03:12:36;;;;;;;1999.90;999.90;;;3.10;99.90;;;;;;4977291;28;20175;-80
2020/12/08 03:15:05;;;;;;;1999.90;999.90;;;3.10;99.90;;;;;;4977875;28;20445;-80
2020/12/08 03:17:31;;;;;;;1999.90;999.90;;;3.10;99.90;;;;;;4977024;28;20156;-80
2020/12/08 03:19:57;;;;;;;1999.90;999.90;;;3.10;99.90;;;;;;4975730;28;20167;-81
2020/12/08 03:22:23;;;;;;;1999.90;999.90;;;3.10;99.90;;;;;;4977206;28;20187;-80
2020/12/08 03:24:49;;;;;;;1999.90;999.90;;;3.10;99.90;;;;;;4978144;28;20175;-80
2020/12/08 03:27:16;;;;;;;1999.90;999.90;;;3.10;99.90;;;;;;4977475;28;20250;-80
2020/12/08 03:29:42;;;;;;;1999.90;999.90;;;3.10;99.90;;;;;;4977597;28;20402;-80
2020/12/08 03:32:07;;;;;;;1999.90;999.90;;;3.10;99.90;;;;;;4977653;28;20254;-80
2020/12/08 03:34:33;;;;;;;1999.90;999.90;;;3.10;99.90;;;;;;4977660;28;20199;-80
2020/12/08 03:36:59;;;;;;;1999.90;999.90;;;3.10;99.90;;;;;;4960251;28;20197;-80
2020/12/08 03:39:25;;;;;;;1999.90;999.90;;;3.10;99.90;;;;;;4977614;28;20167;-80
2020/12/08 03:41:51;;;;;;;1999.90;999.90;;;3.10;99.90;;;;;;4962634;28;20159;-80
2020/12/08 03:44:16;;;;;;;1999.90;999.90;;;3.10;99.90;;;;;;4980331;28;20159;-80
2020/12/08 03:46:42;;;;;;;1999.90;999.90;;;3.10;99.90;;;;;;4980723;28;20407;-81
2020/12/08 03:49:07;;;;;;;1999.90;999.90;;;3.00;99.90;;;;;;4980434;28;20202;-80
2020/12/08 03:51:33;;;;;;;1999.90;999.90;;;3.00;99.90;;;;;;4980920;28;20602;-80
2020/12/08 03:53:59;;;;;;;1999.90;999.90;;;3.00;99.90;;;;;;4980892;28;20738;-80
2020/12/08 03:56:24;;;;;;;1999.90;999.90;;;2.90;99.90;;;;;;4980861;28;20226;-80
2020/12/08 03:58:50;;;;;;;1999.90;999.90;;;2.90;99.90;;;;;;4963637;28;20516;-80
2020/12/08 04:01:20;;;;;;;1999.90;999.90;;;2.90;99.90;;;;;;4980821;28;20159;-80
2020/12/08 04:03:47;;;;;;;1999.90;999.90;;;2.80;99.90;;;;;;4963558;28;20218;-80
2020/12/08 04:06:13;;;;;;;1999.90;999.90;;;2.80;99.90;;;;;;4980771;28;20178;-80
2020/12/08 04:08:43;;;;;;;1999.90;999.90;;;2.70;99.90;;;;;;4963274;28;20171;-80
2020/12/08 04:11:09;;;;;;;1999.90;999.90;;;2.70;99.90;;;;;;4980995;28;20171;-80
2020/12/08 04:13:35;;;;;;;1999.90;999.90;;;2.60;99.90;;;;;;4980406;28;20602;-80
2020/12/08 04:16:01;;;;;;;1999.90;999.90;;;2.60;99.90;;;;;;4962766;28;20238;-80
2020/12/08 04:18:27;;;;;;;1999.90;999.90;;;2.50;99.90;;;;;;4980558;28;20623;-80
2020/12/08 04:20:56;;;;;;;1999.90;999.90;;;2.50;99.90;;;;;;4980081;28;20167;-80
2020/12/08 04:23:23;;;;;;;1999.90;999.90;;;2.50;99.90;;;;;;4980406;28;20175;-81
2020/12/08 04:25:49;;;;;;;1999.90;999.90;;;2.40;99.90;;;;;;4963266;28;20179;-80
2020/12/08 04:28:15;;;;;;;1999.90;999.90;;;2.40;99.90;;;;;;4980102;28;20238;-80
2020/12/08 04:30:40;;;;;;;1999.90;999.90;;;2.50;99.90;;;;;;4980100;28;20167;-81
2020/12/08 04:33:07;;;;;;;1999.90;999.90;;;2.50;99.90;;;;;;4980740;28;20167;-80
2020/12/08 04:35:33;;;;;;;1999.90;999.90;;;2.60;99.90;;;;;;4980140;28;20191;-80
2020/12/08 04:37:58;;;;;;;1999.90;999.90;;;2.60;99.90;;;;;;4981757;28;20574;-80
2020/12/08 04:40:25;;;;;;;1999.90;999.90;;;2.70;99.90;;;;;;4979629;28;20399;-80
2020/12/08 04:42:55;;;;;;;1999.90;999.90;;;2.70;99.90;;;;;;4980451;28;20231;-80
2020/12/08 04:45:22;;;;;;;1999.90;999.90;;;2.80;99.90;;;;;;4980501;28;20163;-80
2020/12/08 04:47:48;;;;;;;1999.90;999.90;;;2.80;99.90;;;;;;4979731;28;20182;-80
2020/12/08 04:50:17;;;;;;;1999.90;999.90;;;2.90;99.90;;;;;;4962361;28;20171;-80
2020/12/08 04:52:44;;;;;;;1999.90;999.90;;;2.90;99.90;;;;;;4962528;28;20243;-80
2020/12/08 04:55:10;;;;;;;1999.90;999.90;;;3.00;99.90;;;;;;4979439;28;20201;-80
2020/12/08 04:57:38;;;;;;;1999.90;999.90;;;3.00;99.90;;;;;;4962532;28;20171;-80
2020/12/08 05:00:09;;;;;;;1999.90;999.90;;;3.10;99.90;;;;;;4980183;28;20171;-80
2020/12/08 05:02:55;;;;;;;1999.90;999.90;;;3.10;99.90;;;;;;4978202;28;20152;-80
2020/12/08 05:05:22;;;;;;;1999.90;999.90;;;3.10;99.90;;;;;;4979977;28;20159;-80
2020/12/08 05:07:49;;;;;;;1999.90;999.90;;;3.10;99.90;;;;;;4979427;28;20598;-80
2020/12/08 05:10:26;;;;;;;1999.90;999.90;;;3.10;99.90;;;;;;4980137;28;20621;-80
2020/12/08 05:12:52;;;;;;;1999.90;999.90;;;3.20;99.90;;;;;;4979344;28;20238;-80
2020/12/08 05:15:17;;;;;;;1999.90;999.90;;;3.20;99.90;;;;;;4962114;28;20355;-80
2020/12/08 05:17:44;;;;;;;1999.90;999.90;;;3.20;99.90;;;;;;4979468;28;20168;-80
2020/12/08 05:20:14;;;;;;;1999.90;999.90;;;3.30;99.90;;;;;;4979276;28;20532;-80
2020/12/08 05:23:00;;;;;;;1999.90;999.90;;;3.30;99.90;;;;;;4979112;28;20182;-80
2020/12/08 05:25:28;;;;;;;1999.90;999.90;;;3.30;99.90;;;;;;4979128;28;20163;-80
2020/12/08 05:27:56;;;;;;;1999.90;999.90;;;3.30;99.90;;;;;;4979531;28;20178;-80
2020/12/08 05:30:23;;;;;;;1999.90;999.90;;;3.40;99.90;;;;;;4979791;28;20191;-80
2020/12/08 05:32:49;;;;;;;1999.90;999.90;;;3.40;99.90;;;;;;4979252;28;20167;-80
2020/12/08 05:35:25;;;;;;;1999.90;999.90;;;3.50;99.90;;;;;;4961669;28;20619;-80
2020/12/08 05:37:53;;;;;;;1999.90;999.90;;;3.50;99.90;;;;;;4979204;28;20515;-80
2020/12/08 05:40:21;;;;;;;1999.90;999.90;;;3.50;99.90;;;;;;4978624;28;20199;-80
2020/12/08 05:42:49;;;;;;;1999.90;999.90;;;3.50;99.90;;;;;;4979069;28;20168;-80
2020/12/08 05:45:20;;;;;;;1999.90;999.90;;;3.50;99.90;;;;;;4979482;28;20171;-80
2020/12/08 05:47:54;;;;;;;1999.90;999.90;;;3.50;99.90;;;;;;4979478;28;20163;-80
2020/12/08 05:50:22;;;;;;;1999.90;999.90;;;3.50;99.90;;;;;;4979073;28;20163;-80
2020/12/08 05:52:56;;;;;;;1999.90;999.90;;;3.60;99.90;;;;;;4978966;28;20527;-80
2020/12/08 05:55:25;;;;;;;1999.90;999.90;;;3.60;99.90;;;;;;4979385;28;20179;-80
2020/12/08 05:57:51;;;;;;;1999.90;999.90;;;3.60;99.90;;;;;;4979530;28;20658;-78
2020/12/08 06:00:26;;;;;;;1999.90;999.90;;;3.60;99.90;;;;;;4961782;28;20173;-79
2020/12/08 06:03:07;;;;;;;1999.90;999.90;;;3.60;99.90;;;;;;4978733;28;20543;-80
2020/12/08 06:05:34;;;;;;;1999.90;999.90;;;3.60;99.90;;;;;;4979019;28;20214;-80
2020/12/08 06:08:21;;;;;;;1999.90;999.90;;;3.60;99.90;;;;;;4962045;28;20175;-80
2020/12/08 06:10:49;;;;;;;1999.90;999.90;;;3.70;99.90;;;;;;4979273;28;20154;-80
2020/12/08 06:13:31;;;;;;;1999.90;999.90;;;3.60;99.90;;;;;;4978401;28;20220;-80
2020/12/08 06:15:59;;;;;;;1999.90;999.90;;;3.60;99.90;;;;;;4979095;28;20191;-80
2020/12/08 06:18:36;;;;;;;1999.90;999.90;;;3.70;99.90;;;;;;4978871;28;20201;-80
2020/12/08 06:21:04;;;;;;;1999.90;999.90;;;3.70;99.90;;;;;;4977593;28;20213;-80
2020/12/08 06:23:30;;;;;;;1999.90;999.90;;;3.70;99.90;;;;;;4978729;28;20156;-80
2020/12/08 06:26:00;;;;;;;1999.90;999.90;;;3.70;99.90;;;;;;4961570;28;20171;-80
2020/12/08 06:28:26;;;;;;;1999.90;999.90;;;3.70;99.90;;;;;;4978551;28;20604;-81
2020/12/08 06:31:08;;;;;;;1999.90;999.90;;;3.70;99.90;;;;;;4979040;28;20662;-80
2020/12/08 06:33:53;;;;;;;1999.90;999.90;;;3.70;99.90;;;;;;4978659;28;20457;-80
2020/12/08 06:36:21;;;;;;;1999.90;999.90;;;3.70;99.90;;;;;;4978784;28;20187;-80
2020/12/08 06:39:07;;;;;;;1999.90;999.90;;;3.80;99.90;;;;;;4979063;28;20155;-80
2020/12/08 06:41:34;;;;;;;1999.90;999.90;;;3.70;99.90;;;;;;4978511;28;20187;-80
2020/12/08 06:44:01;;;;;;;1999.90;999.90;;;3.70;99.90;;;;;;4978640;28;20167;-80
2020/12/08 06:46:27;;;;;;;1999.90;999.90;;;3.70;99.90;;;;;;4977421;28;20221;-80
2020/12/08 06:49:06;;;;;;;1999.90;999.90;;;3.70;99.90;;;;;;4978583;28;20179;-80
2020/12/08 06:51:33;;;;;;;1999.90;999.90;;;3.70;99.90;;;;;;4978607;28;20155;-80
2020/12/08 06:53:59;;;;;;;1999.90;999.90;;;3.70;99.90;;;;;;4978252;28;20193;-80
2020/12/08 06:56:30;;;;;;;1999.90;999.90;;;3.70;99.90;;;;;;4978002;28;20267;-80
2020/12/08 06:58:55;;;;;;;1999.90;999.90;;;3.70;99.90;;;;;;4961835;28;20225;-80
2020/12/08 07:01:21;;;;;;;1999.90;999.90;;;3.70;99.90;;;;;;4978540;28;20239;-80
2020/12/08 07:03:48;;;;;;;1999.90;999.90;;;3.60;99.90;;;;;;4979176;28;20164;-80
2020/12/08 07:06:14;;;;;;;1999.90;999.90;;;3.60;99.90;;;;;;4976878;28;20230;-81
2020/12/08 07:08:45;;;;;;;1999.90;999.90;;;3.60;99.90;;;;;;4978552;28;20179;-81
2020/12/08 07:11:21;;;;;;;1999.90;999.90;;;3.60;99.90;;;;;;4960640;28;20407;-81
2020/12/08 07:14:00;;;;;;;1999.90;999.90;;;3.70;99.90;;;;;;4978198;28;20163;-81
2020/12/08 07:16:28;;;;;;;1999.90;999.90;;;3.70;99.90;;;;;;4964258;28;20202;-80
2020/12/08 07:18:57;;;;;;;1999.90;999.90;;;3.70;99.90;;;;;;4981961;28;20214;-80
2020/12/08 07:21:24;;;;;;;1999.90;999.90;;;3.70;99.90;;;;;;4963903;28;20182;-81
2020/12/08 07:23:54;;;;;;;1999.90;999.90;;;3.70;99.90;;;;;;4982031;28;20170;-81
2020/12/08 07:26:23;;;;;;;1999.90;999.90;;;3.70;99.90;;;;;;4982396;28;20178;-80
2020/12/08 07:28:52;;;;;;;1999.90;999.90;;;3.70;99.90;;;;;;4981903;28;20535;-79
2020/12/08 07:31:19;;;;;;;1999.90;999.90;;;3.70;99.90;;;;;;4981798;28;20662;-81
2020/12/08 07:33:45;;;;;;;1999.90;999.90;;;3.70;99.90;;;;;;4964188;28;20708;-80
2020/12/08 07:36:26;;;;;;;1999.90;999.90;;;3.70;99.90;;;;;;4980782;28;20198;-79
2020/12/08 07:38:53;;;;;;;1999.90;999.90;;;3.70;99.90;;;;;;4982214;28;20709;-81
2020/12/08 07:41:30;;;;;;;1999.90;999.90;;;3.80;99.90;;;;;;4964532;28;20171;-80
2020/12/08 07:43:57;;;;;;;1999.90;999.90;;;3.80;99.90;;;;;;4981995;28;20155;-79
2020/12/08 07:46:28;;;;;;;1999.90;999.90;;;3.80;99.90;;;;;;4981915;28;20182;-81
2020/12/08 07:49:08;;;;;;;1999.90;999.90;;;3.80;99.90;;;;;;4964077;28;20579;-80
2020/12/08 07:51:36;;;;;;;1999.90;999.90;;;3.90;99.90;;;;;;4981897;28;20227;-81
2020/12/08 07:54:03;;;;;;;1999.90;999.90;;;3.90;99.90;;;;;;4981681;28;20527;-78
2020/12/08 07:56:33;;;;;;;1999.90;999.90;;;3.90;99.90;;;;;;4980043;28;20199;-81
2020/12/08 07:59:00;;;;;;;1999.90;999.90;;;3.90;99.90;;;;;;4982437;28;20170;-81
2020/12/08 08:01:26;;;;;;;1999.90;999.90;;;3.90;99.90;;;;;;4964259;28;20218;-81
2020/12/08 08:03:53;;;;;;;1999.90;999.90;;;3.90;99.90;;;;;;4981399;28;20237;-80
2020/12/08 08:06:20;;;;;;;1999.90;999.90;;;3.80;99.90;;;;;;4963587;28;20246;-81
2020/12/08 08:08:48;;;;;;;1999.90;999.90;;;3.90;99.90;;;;;;4981648;28;20174;-80
2020/12/08 08:11:14;;;;;;;1999.90;999.90;;;3.90;99.90;;;;;;4981274;28;20701;-80
2020/12/08 08:13:40;;;;;;;1999.90;999.90;;;3.90;99.90;;;;;;4964269;28;20183;-80
2020/12/08 08:16:10;;;;;;;1999.90;999.90;;;3.90;99.90;;;;;;4964135;28;20202;-80
2020/12/08 08:18:37;;;;;;;1999.90;999.90;;;3.90;99.90;;;;;;4981892;28;20170;-81
2020/12/08 08:21:03;;;;;;;1999.90;999.90;;;3.90;99.90;;;;;;4981549;28;20182;-80
2020/12/08 08:23:30;;;;;;;1999.90;999.90;;;3.90;99.90;;;;;;4981186;28;20168;-80
2020/12/08 08:25:56;;;;;;;1999.90;999.90;;;3.90;99.90;;;;;;4963646;28;20203;-80
2020/12/08 08:28:22;;;;;;;1999.90;999.90;;;3.90;99.90;;;;;;4980687;28;20163;-80
2020/12/08 08:30:48;;;;;;;1999.90;999.90;;;3.90;99.90;;;;;;4979628;28;20179;-81
2020/12/08 08:33:13;;;;;;;1999.90;999.90;;;3.90;99.90;;;;;;4980674;28;20168;-80
2020/12/08 08:35:39;;;;;;;1999.90;999.90;;;3.90;99.90;;;;;;4980817;28;20241;-80
2020/12/08 08:38:05;;;;;;;1999.90;999.90;;;3.90;99.90;;;;;;4981485;28;20210;-80
2020/12/08 08:40:32;;;;;;;1999.90;999.90;;;4.00;99.90;;;;;;4980347;28;20175;-81
2020/12/08 08:42:58;;;;;;;1999.90;999.90;;;4.00;99.90;;;;;;4980967;28;20156;-81
2020/12/08 08:45:24;;;;;;;1999.90;999.90;;;4.00;99.90;;;;;;4981007;28;20163;-80
2020/12/08 08:47:50;;;;;;;1999.90;999.90;;;4.00;99.90;;;;;;4980153;28;20173;-80
2020/12/08 08:50:16;;;;;;;1999.90;999.90;;;4.00;99.90;;;;;;4980396;28;20171;-80
2020/12/08 08:52:41;;;;;;;1999.90;999.90;;;4.10;99.90;;;;;;4963190;28;20175;-81
2020/12/08 08:55:10;;;;;;;1999.90;999.90;;;4.10;99.90;;;;;;4962623;28;20191;-80
2020/12/08 08:57:37;;;;;;;1999.90;999.90;;;4.10;99.90;;;;;;4980680;28;20162;-80
2020/12/08 09:00:09;;;;;;;1999.90;999.90;;;4.10;99.90;;;;;;4981209;28;20195;-80
2020/12/08 09:02:36;;;;;;;1999.90;999.90;;;4.20;99.90;;;;;;4980659;28;20152;-80
2020/12/08 09:05:03;;;;;;;1999.90;999.90;;;4.20;99.90;;;;;;4979462;28;20162;-80
2020/12/08 09:07:29;;;;;;;1999.90;999.90;;;4.20;99.90;;;;;;4979599;28;20197;-81
2020/12/08 09:09:56;;;;;;;1999.90;999.90;;;4.20;99.90;;;;;;4979799;28;20159;-80
2020/12/08 09:12:22;;;;;;;1999.90;999.90;;;4.30;99.90;;;;;;4979561;28;20168;-80
2020/12/08 09:14:50;;;;;;;1999.90;999.90;;;4.30;99.90;;;;;;4979388;28;20214;-81
2020/12/08 09:17:15;;;;;;;1999.90;999.90;;;4.40;99.90;;;;;;4979908;28;20155;-80
2020/12/08 09:22:12;;;;;;;1999.90;999.90;;;4.30;99.90;;;;;;4978998;28;20208;-83
2020/12/08 09:24:49;;;;;;;1999.90;999.90;;;4.30;99.90;;;;;;4978912;28;20655;-85
2020/12/08 09:27:22;;;;;;;1999.90;999.90;;;4.30;99.90;;;;;;4962308;28;20466;-84
2020/12/08 09:29:53;;;;;;;1999.90;999.90;;;4.40;99.90;;;;;;4979350;28;20190;-84
2020/12/08 09:32:31;;;;;;;1999.90;999.90;;;4.50;99.90;;;;;;4978099;28;20270;-84
2020/12/08 09:35:18;;;;;;;;;;;;;;;;;;;;;
2020/12/08 09:38:15;;;;;;;1999.90;999.90;;;4.60;99.90;;;;;;4979181;28;20257;-85
2020/12/08 09:41:13;;;;;;;;;;;;;;;;;;;;;
2020/12/08 09:44:06;;;;;;;1999.90;999.90;;;4.70;99.90;;;;;;4978154;28;20250;-84
2020/12/08 09:47:09;;;;;;;;;;;;;;;;;;;;;
2020/12/08 09:49:55;;;;;;;;;;;;;;;;;;;;;
2020/12/08 09:52:40;;;;;;;1999.90;999.90;;;4.90;99.90;;;;;;4979919;28;20235;-85
2020/12/08 09:55:17;;;;;;;1999.90;999.90;;;5.00;99.90;;;;;;4960294;28;20199;-85
2020/12/08 09:57:52;;;;;;;1999.90;999.90;;;5.00;99.90;;;;;;4960630;28;20175;-84
2020/12/08 10:00:38;;;;;;;1999.90;999.90;;;5.00;99.90;;;;;;4976034;28;20665;-84
2020/12/08 10:11:19;;;;;;;;;;;;;;;;;;;;;
2020/12/08 10:20:37;;;;;;;1999.90;999.90;;;5.10;99.90;;;;;;4827117;29;20192;-84
2020/12/08 10:23:18;;;;;;;1999.90;999.90;;;5.00;99.90;;;;;;4826881;29;20207;-85
2020/12/08 10:26:00;;;;;;;1999.90;999.90;;;5.00;99.90;;;;;;4847024;29;20225;-85
2020/12/08 10:28:59;;;;;;;1999.90;999.90;;;5.00;99.90;;;;;;4959444;28;20225;-85
2020/12/08 10:31:40;;;;;;;1999.90;999.90;;;5.00;99.90;;;;;;4955017;28;20248;-85
2020/12/08 10:34:32;;;;;;;1999.90;999.90;;;5.10;99.90;;;;;;4980841;28;20199;-86
2020/12/08 10:40:16;;;;;;;1999.90;999.90;;;5.10;99.90;;;;;;4949171;28;20511;-86
2020/12/08 10:43:19;;;;;;;1999.90;999.90;;;5.10;99.90;;;;;;4978616;28;20175;-86
2020/12/08 10:46:09;;;;;;;1999.90;999.90;;;5.10;99.90;;;;;;4961431;28;20563;-85
2020/12/08 10:48:46;;;;;;;1999.90;999.90;;;5.00;99.90;;;;;;4960430;28;20164;-84
2020/12/08 10:54:12;;;;;;;1999.90;999.90;;;5.00;99.90;;;;;;4983674;28;20250;-85
2020/12/08 10:57:14;;;;;;;1999.90;999.90;;;5.10;99.90;;;;;;4983019;28;20655;-85
2020/12/08 11:00:21;;;;;;;1999.90;999.90;;;5.20;99.90;;;;;;4966276;28;20253;-87
2020/12/08 11:02:49;;;;;;;1999.90;999.90;;;5.20;99.90;;;;;;4981793;28;20179;-85
2020/12/08 11:05:21;;;;;;;1999.90;999.90;;;5.20;99.90;;;;;;4984345;28;20163;-86
2020/12/08 11:08:19;;;;;;;1999.90;999.90;;;5.30;99.90;;;;;;4966940;28;20167;-85
2020/12/08 11:11:16;;;;;;;1999.90;999.90;;;5.40;99.90;;;;;;4983245;28;20635;-86
2020/12/08 11:13:45;;;;;;;1999.90;999.90;;;5.50;99.90;;;;;;4982544;28;20618;-85
2020/12/08 11:16:22;;;;;;;1999.90;999.90;;;5.50;99.90;;;;;;4981111;28;20222;-85
2020/12/08 11:18:48;;;;;;;1999.90;999.90;;;5.60;99.90;;;;;;4982536;28;20230;-85
2020/12/08 11:21:15;;;;;;;1999.90;999.90;;;5.60;99.90;;;;;;4981028;28;20163;-85
2020/12/08 11:23:44;;;;;;;1999.90;999.90;;;5.60;99.90;;;;;;4964395;28;20195;-85
2020/12/08 11:26:14;;;;;;;1999.90;999.90;;;5.60;99.90;;;;;;4980310;28;20205;-85
2020/12/08 11:28:40;;;;;;;1999.90;999.90;;;5.60;99.90;;;;;;4981676;28;20643;-85
2020/12/08 11:31:15;;;;;;;1999.90;999.90;;;5.60;99.90;;;;;;4981020;28;20261;-85
2020/12/08 11:33:50;;;;;;;1999.90;999.90;;;5.70;99.90;;;;;;4964515;28;20185;-84
2020/12/08 11:36:21;;;;;;;1999.90;999.90;;;5.80;99.90;;;;;;4981374;28;20237;-85
2020/12/08 11:38:50;;;;;;;1999.90;999.90;;;5.80;99.90;;;;;;4981319;28;20548;-84
2020/12/08 11:41:28;;;;;;;1999.90;999.90;;;5.80;99.90;;;;;;4980576;28;20315;-84
2020/12/08 11:43:56;;;;;;;1999.90;999.90;;;5.70;99.90;;;;;;4963734;28;20174;-85
2020/12/08 11:46:31;;;;;;;1999.90;999.90;;;5.70;99.90;;;;;;4963287;28;20171;-85
2020/12/08 11:49:03;;;;;;;1999.90;999.90;;;5.70;99.90;;;;;;4980166;28;20665;-85
2020/12/08 11:51:47;;;;;;;1999.90;999.90;;;5.60;99.90;;;;;;4982571;28;20171;-86
2020/12/08 11:54:22;;;;;;;1999.90;999.90;;;5.50;99.90;;;;;;4982247;28;20148;-86
2020/12/08 11:57:14;;;;;;;1999.90;999.90;;;5.50;99.90;;;;;;4981088;28;20237;-85
2020/12/08 11:59:49;;;;;;;1999.90;999.90;;;5.50;99.90;;;;;;4952526;28;20697;-85
2020/12/08 12:06:02;;;;;;;1999.90;999.90;;;5.60;99.90;;;;;;4979814;28;20159;-85
2020/12/08 12:12:30;;;;;;;1999.90;999.90;;;5.60;99.90;;;;;;4957243;29;20183;-85
2020/12/08 12:18:29;;;;;;;1999.90;999.90;;;5.60;99.90;;;;;;4959876;29;20190;-85
2020/12/08 12:21:05;;;;;;;1999.90;999.90;;;5.60;99.90;;;;;;4933897;29;20226;-85
2020/12/08 12:24:18;;;;;;;1999.90;999.90;;;5.50;99.90;;;;;;4973555;28;20182;-85
2020/12/08 12:27:08;;;;;;;1999.90;999.90;;;5.60;99.90;;;;;;4979826;28;20175;-84
2020/12/08 12:30:07;;;;;;;1999.90;999.90;;;5.70;99.90;;;;;;4963706;28;20682;-84
2020/12/08 12:32:45;;;;;;;1999.90;999.90;;;5.80;99.90;;;;;;4952969;28;20187;-85
2020/12/08 12:35:39;;;;;;;1999.90;999.90;;;5.80;99.90;;;;;;4980994;28;20277;-85
2020/12/08 12:38:13;;;;;;;1999.90;999.90;;;5.90;99.90;;;;;;4981132;28;20171;-85
2020/12/08 12:40:52;;;;;;;1999.90;999.90;;;6.00;99.90;;;;;;4982143;28;20155;-85
2020/12/08 12:43:20;;;;;;;1999.90;999.90;;;6.00;99.90;;;;;;4965129;28;20242;-86
2020/12/08 12:45:46;;;;;;;1999.90;999.90;;;6.00;99.90;;;;;;4963152;28;20274;-86
2020/12/08 12:48:20;;;;;;;1999.90;999.90;;;6.00;99.90;;;;;;4963789;28;20205;-86
2020/12/08 12:51:11;;;;;;;1999.90;999.90;;;6.00;99.90;;;;;;4964473;28;20167;-86
2020/12/08 12:53:43;;;;;;;1999.90;999.90;;;6.00;99.90;;;;;;4981258;28;20206;-86
2020/12/08 12:56:56;;;;;;;;;;;;;;;;;;;;;
2020/12/08 12:59:34;;;;;;;1999.90;999.90;;;6.00;99.90;;;;;;4981510;28;20230;-85
2020/12/08 13:06:15;;;;;;;1999.90;999.90;;;5.90;99.90;;;;;;4920723;29;20181;-85
2020/12/08 13:12:17;;;;;;;1999.90;999.90;;;6.00;99.90;;;;;;4899658;29;20208;-86
2020/12/08 13:14:46;;;;;;;1999.90;999.90;;;6.00;99.90;;;;;;4921094;29;20729;-85
2020/12/08 13:17:15;;;;;;;1999.90;999.90;;;6.00;99.90;;;;;;4939612;28;20226;-85